To NAV CANADA Home Page Login to a new session Search on AWWS site Feedback and Comments Disclaimer Vers la page française équivalente Tips FAQ What's new on the site To the Forecasts and Observations / NOTAM section To "File a Flight Plan" website Publications and other links Update of the User's profile FIC Telephone Numbers My Weather Data Folder Route Weather Data Regional Weather Data Local Weather Data To the Forecasts and Observations / NOTAM section
Request Generated 02/11/2016 at 16:50:36 UTC . Weather information available at that time is displayed.

METAR/TAF

OTTAWA/MACDONALD-CARTIER INTL/ON    

METAR CYOW 111600Z 28016KT 10SM DRSN FEW010 SCT025 M18/M23 A2990 RMK
SF1SC3 SLP135=
SPECI CYOW 111538Z 28014G19KT 8SM DRSN SCT010 OVC029 M18/M23 A2988
RMK SF3SC5 SLP131=
METAR CYOW 111500Z 31012KT 4SM -SN DRSN BKN013 OVC025 M18/M22 A2987
RMK SF5SC3 SLP127=
METAR CYOW 111400Z 32016KT 3SM -SN DRSN BKN014 OVC027 M18/M22 A2985
RMK SF5SC3 SLP119=

TAF CYOW 111438Z 1115/1212 32015KT P6SM -SN FEW015 OVC030 TEMPO
1115/1116 4SM -SN OVC020
FM120000 29010KT P6SM BKN030
FM120200 27007KT P6SM SCT040
FM120900 17005KT P6SM BKN050
RMK NXT FCST BY 111800Z=
Your time UTC time
Weather data provided by Environment Canada and NAV CANADA